• Join FlightAware (Why Join?)
  • Login
  • US Flag 
10:04AM EDT


 

Airport Tracker/Info


-or-


 

Live Flight TrackerFlight Track Log ✈ C-GEJD ✈ 28-Apr-2014 ✈ CYSJ - CYUL

Flight Track Log - Related Links

Times and Time Zones

All times are in EDT time to prevent confusion due to time zone crossing. See the C-GEJD flight status page for this flight to view local times or setup timezone preferences in your user account.

Time Position Orientation Groundspeed Altitude Reporting Facility
EDT Latitude Longitude Course Direction KTS MPH feet Rate Location/Type
09:48PM 45.3392 -65.8856 309° West 182 209 3,300  Level Boston Center
09:49PM 45.3272 -65.9844 260° West 271 312 6,100 2,880 Climbing Boston Center
09:50PM 45.3314 -66.1064 273° West 289 333 9,200 3,780 Climbing Boston Center
09:51PM 45.3444 -66.2419 278° West 327 376 13,800 4,560 Climbing Boston Center
09:52PM 45.3561 -66.3806 277° West 349 402 18,500 4,080 Climbing Boston Center
09:53PM 45.4080 -66.7268 309° West  Level FlightAware Approximate
09:53PM 45.3650 -66.5206 275° West 353 406 22,100  Level Boston Center
09:54PM 45.3897 -66.6758 283° West 382 440 24,900 2,820 Climbing Boston Center
09:55PM 45.4592 -66.8039 308° West 416 479 27,900 2,700 Climbing Boston Center
09:56PM 45.5331 -66.9314 310° West 419 482 30,400 1,980 Climbing Boston Center
09:57PM 45.6097 -67.0678 309° West 437 503 32,000 1,920 Climbing Boston Center
09:58PM 45.6897 -67.2111 309° West 459 528 34,400 2,640 Climbing Boston Center
09:59PM 45.7681 -67.3492 309° West 433 498 37,400 2,460 Climbing Boston Center
10:00PM 45.8386 -67.4736 309° West 411 473 39,400 1,320 Climbing Boston Center
10:01PM 45.9000 -67.6000 305° West 400 460 40,000 300 Climbing Moncton Center
10:02PM 45.9833 -67.7500 309° West 420 483 40,000  Level Moncton Center
10:03PM 46.0167 -67.9000 288° West 420 483 40,000  Level Moncton Center
10:04PM 46.0167 -68.0667 270° West 430 495 40,000  Level Moncton Center
10:05PM 46.0264 -68.2644 274° West 432 497 40,000  Level Boston Center
10:06PM 46.0214 -68.4378 268° West 432 497 40,000  Level Boston Center
10:07PM 46.0167 -68.6131 268° West 434 499 40,000  Level Boston Center
10:08PM 46.0108 -68.7864 267° West 433 498 40,000  Level Boston Center
10:09PM 46.0053 -68.9589 267° West 434 499 40,000  Level Boston Center
10:10PM 45.9989 -69.1308 267° West 433 498 40,000  Level Boston Center
10:11PM 45.9922 -69.3019 267° West 430 495 40,000  Level Boston Center
10:12PM 45.9850 -69.4739 267° West 431 496 40,000  Level Boston Center
10:13PM 45.9786 -69.6489 267° West 432 497 40,000  Level Boston Center
10:14PM 45.9717 -69.8186 267° West 429 494 40,000  Level Boston Center
10:15PM 45.9647 -69.9878 267° West 428 493 40,000  Level Boston Center
10:16PM 45.9567 -70.1544 266° West 422 486 40,000  Level Boston Center
10:17PM 45.9333 -70.3000 257° West 420 483 40,000  Level Moncton Center
10:18PM 45.9333 -70.4000 270° West 420 483 40,000  Level Montreal Center
10:19PM 45.9333 -70.5667 270° West 420 483 40,000  Level Montreal Center
10:20PM 45.9167 -70.7333 262° West 420 483 40,000  Level Montreal Center
10:21PM 45.9000 -70.8833 261° West 420 483 40,000  Level Montreal Center
10:22PM 45.9000 -71.0500 270° West 420 483 40,000  Level Montreal Center
10:23PM 45.8667 -71.2167 254° West 420 483 40,000  Level Montreal Center
10:24PM 45.8667 -71.4000 270° West 420 483 40,000 -480 Level Montreal Center
10:25PM 45.8500 -71.5667 262° West 410 472 39,100 -1,680 Descending Montreal Center
10:26PM 45.8333 -71.7333 262° West 390 449 36,700 -2,340 Descending Montreal Center
10:27PM 45.8167 -71.8833 261° West 380 437 34,500 -2,220 Descending Montreal Center
10:28PM 45.8000 -72.0000 258° West 370 426 32,300 -2,280 Descending Montreal Center
10:29PM 45.8000 -72.1667 270° West 390 449 30,000 -2,400 Descending Montreal Center
10:30PM 45.7833 -72.3333 262° West 410 472 27,600 -2,460 Descending Montreal Center
10:31PM 45.7500 -72.5000 254° West 430 495 25,100 -2,520 Descending Montreal Center
10:32PM 45.7500 -72.6500 270° West 440 506 22,600 -2,580 Descending Montreal Center
10:33PM 45.7333 -72.8500 263° West 420 483 20,000 -2,460 Descending Montreal Center
10:34PM 45.7000 -73.0167 254° West 410 472 17,700 -2,340 Descending Montreal Center
10:35PM 45.6667 -73.1667 252° West 380 437 15,400 -2,160 Descending Montreal Center
10:36PM 45.6333 -73.2833 248° West 370 426 13,400 -2,100 Descending Montreal Center
10:37PM 45.5667 -73.4000 231° Southwest 370 426 11,300 -1,980 Descending Montreal Center
10:38PM 45.5000 -73.5000 226° Southwest 330 380 9,500 -1,560 Descending Montreal Center
10:39PM 45.4500 -73.5833 229° Southwest 260 299 8,200 -1,440 Descending Montreal Center
10:40PM 45.4000 -73.6500 223° Southwest 270 311 6,700 -1,560 Descending Montreal Center
10:41PM 45.3333 -73.7333 221° Southwest 280 322 5,100 -1,440 Descending Montreal Center
10:42PM 45.2833 -73.8000 223° Southwest 260 299 3,900 -1,080 Descending Montreal Center
10:43PM 45.3000 -73.8667 290° West 230 265 3,000 -540 Descending Montreal Center
10:44PM 45.3500 -73.8667 360° North 160 184 2,900 -480 Descending Montreal Center
10:45PM 45.3667 -73.8167 65° Northeast 160 184 2,100 -780 Descending Montreal Center
10:46PM 45.4000 -73.8000 19° North 120 138 1,400 -660 Descending Montreal Center
10:47PM 45.4167 -73.7667 55° Northeast 100 115 800 -600 Descending Montreal Center
10:48PM 45.4500 -73.7167 46° Northeast 100 115 200 -360 Descending Montreal Center
10:49PM 45.4500 -73.7167 90° East 50 58 100 -120 Descending Montreal Center